sim
Sign-in with your pilot id or email,
or register
Callsign
Passwort

Schedule Details

Flight Number: OEO4761
Departure: Tampere Pirkkala Airport (EFTP) at 14:10
Arrival: Munich Airport (EDDM) at 16:55

Weather Information
Getting current METAR information for EFTP 010150Z AUTO VRB01KT 0450 R24/1200 FG VV001 04/04 Q1021
Getting current METAR information for EDDM 010150Z 08001KT 1200 0500NE R08L/0450N R08R/1000N BCFG NSC 04/04 Q1010 BECMG 0600 FG

Schedule Frequency

Route Map